createdAt,value
2022-10-20T04:00:18.765Z,21.10
2022-10-20T04:02:50.748Z,25.53
2022-10-20T04:05:22.623Z,18.17
2022-10-20T04:07:54.302Z,23.60
2022-10-20T04:10:26.115Z,25.03
2022-10-20T04:12:59.240Z,21.90
2022-10-20T04:15:31.103Z,22.30
2022-10-20T04:18:02.827Z,21.53
2022-10-20T04:20:34.628Z,25.00
2022-10-20T04:23:06.354Z,23.53
2022-10-20T04:25:45.353Z,21.60
2022-10-20T04:28:19.273Z,22.43
2022-10-20T04:30:51.060Z,25.33
2022-10-20T04:33:22.737Z,24.23
2022-10-20T04:36:02.331Z,20.93
2022-10-20T04:38:35.236Z,21.27
2022-10-20T04:41:07.030Z,22.97
2022-10-20T04:43:38.690Z,28.77
2022-10-20T04:46:10.636Z,22.70
2022-10-20T04:48:44.211Z,29.73
2022-10-20T04:51:16.655Z,23.17
2022-10-20T04:53:48.450Z,27.42
2022-10-20T04:56:21.411Z,23.83
2022-10-20T04:58:55.906Z,25.67
2022-10-20T05:01:29.952Z,21.63
2022-10-20T05:04:01.725Z,18.90
2022-10-20T05:06:34.279Z,21.20
2022-10-20T05:09:07.383Z,24.70
2022-10-20T05:11:39.405Z,27.03
2022-10-20T05:14:11.472Z,33.20
2022-10-20T05:16:43.436Z,24.10
2022-10-20T05:19:15.346Z,23.97
2022-10-20T05:21:47.182Z,24.90
2022-10-20T05:24:21.452Z,20.93
2022-10-20T05:26:55.200Z,24.97
2022-10-20T05:29:27.305Z,25.73
2022-10-20T05:32:00.220Z,26.30
2022-10-20T05:34:32.011Z,22.90
2022-10-20T05:37:03.800Z,23.80
2022-10-20T05:39:36.009Z,26.30
2022-10-20T05:42:10.253Z,25.10
2022-10-20T05:44:42.199Z,26.53
2022-10-20T05:47:15.110Z,22.10
2022-10-20T05:49:57.602Z,29.33
2022-10-20T05:52:29.566Z,25.30
2022-10-20T05:55:03.282Z,31.60
2022-10-20T05:57:35.184Z,23.53
2022-10-20T06:00:07.829Z,24.10
2022-10-20T06:02:39.815Z,24.03
2022-10-20T06:05:11.690Z,24.93
2022-10-20T06:07:44.815Z,23.30
2022-10-20T06:10:16.659Z,27.10
2022-10-20T06:12:48.430Z,21.33
2022-10-20T06:15:20.232Z,23.90
2022-10-20T06:17:51.967Z,25.83
2022-10-20T06:20:23.697Z,26.00
2022-10-20T06:22:55.336Z,26.00
2022-10-20T06:25:26.981Z,23.40
2022-10-20T06:27:58.618Z,25.00
2022-10-20T06:30:30.869Z,25.57
2022-10-20T06:33:02.522Z,21.27
2022-10-20T06:35:34.180Z,29.90
2022-10-20T06:38:06.195Z,29.37
2022-10-20T06:40:37.894Z,28.20
2022-10-20T06:43:09.629Z,30.43
2022-10-20T06:45:41.356Z,29.27
2022-10-20T06:48:13.154Z,22.10
2022-10-20T06:50:44.962Z,26.73
2022-10-20T06:53:17.019Z,26.93
2022-10-20T06:56:06.858Z,27.13
2022-10-20T06:58:40.208Z,23.57
2022-10-20T07:01:17.788Z,21.53
2022-10-20T07:03:51.024Z,27.07
2022-10-20T07:06:25.760Z,30.13
2022-10-20T07:08:58.670Z,31.77
2022-10-20T07:11:31.974Z,27.48
2022-10-20T07:14:04.279Z,28.73
2022-10-20T07:16:36.071Z,28.27
2022-10-20T07:19:07.889Z,24.73
2022-10-20T07:21:42.973Z,30.17
2022-10-20T07:24:17.135Z,34.63
2022-10-20T07:26:48.798Z,26.10
2022-10-20T07:29:20.686Z,29.10
2022-10-20T07:31:52.535Z,27.57
2022-10-20T07:34:26.146Z,24.57
2022-10-20T07:36:58.841Z,27.03
2022-10-20T07:39:30.610Z,27.37
2022-10-20T07:42:02.256Z,28.50
2022-10-20T07:44:34.081Z,27.90
2022-10-20T07:47:05.720Z,25.37
2022-10-20T07:49:45.243Z,29.40
2022-10-20T07:52:18.338Z,15.93
2022-10-20T07:54:50.243Z,23.00
2022-10-20T07:57:21.932Z,23.53
2022-10-20T07:59:53.700Z,24.30
2022-10-20T08:02:25.391Z,21.70
2022-10-20T08:04:58.154Z,19.40
2022-10-20T08:07:29.895Z,21.10
2022-10-20T08:10:02.040Z,19.40
2022-10-20T08:12:34.068Z,18.40
2022-10-20T08:15:06.216Z,18.23
2022-10-20T08:17:37.987Z,17.97
2022-10-20T08:20:22.393Z,15.53
2022-10-20T08:22:56.718Z,25.70
2022-10-20T08:25:28.400Z,19.33
2022-10-20T08:28:00.257Z,23.47
2022-10-20T08:30:32.119Z,19.60
2022-10-20T08:33:04.036Z,18.80
2022-10-20T08:35:35.987Z,15.30
2022-10-20T08:38:07.720Z,17.53
2022-10-20T08:40:42.709Z,18.67
2022-10-20T08:43:19.878Z,18.33
2022-10-20T08:45:51.720Z,14.93
2022-10-20T08:48:32.524Z,15.00
2022-10-20T08:51:04.793Z,16.40
2022-10-20T08:53:40.078Z,14.13
2022-10-20T08:56:13.909Z,20.33
2022-10-20T08:58:46.402Z,14.20
2022-10-20T09:01:24.117Z,14.30
2022-10-20T09:03:58.635Z,18.67
2022-10-20T09:06:30.668Z,12.83
2022-10-20T09:09:03.648Z,11.20
2022-10-20T09:11:40.242Z,12.20
2022-10-20T09:14:13.267Z,17.97
2022-10-20T09:16:59.865Z,12.67
2022-10-20T09:19:31.906Z,11.70
2022-10-20T09:22:06.169Z,15.63
2022-10-20T09:24:38.192Z,12.17
2022-10-20T09:27:23.264Z,15.30
2022-10-20T09:29:54.996Z,13.63
2022-10-20T09:32:50.369Z,11.23
2022-10-20T09:35:32.853Z,11.07
2022-10-20T09:38:10.394Z,11.43
2022-10-20T09:40:54.691Z,11.83
2022-10-20T09:43:27.324Z,10.10
2022-10-20T09:46:05.855Z,12.37
2022-10-20T09:48:47.080Z,13.60
2022-10-20T09:51:22.259Z,12.47
2022-10-20T09:54:06.469Z,10.40
2022-10-20T09:56:43.109Z,10.93
2022-10-20T09:59:29.642Z,10.33
2022-10-20T10:02:15.086Z,11.93
2022-10-20T10:04:49.060Z,9.40
2022-10-20T10:07:26.817Z,8.70
2022-10-20T10:10:05.621Z,10.20
2022-10-20T10:12:40.220Z,10.53
2022-10-20T10:15:31.415Z,9.20
2022-10-20T10:18:19.203Z,11.33
2022-10-20T10:21:03.457Z,10.53
2022-10-20T10:23:55.197Z,15.23
2022-10-20T10:26:53.165Z,9.17
2022-10-20T10:29:31.083Z,9.47
2022-10-20T10:32:14.578Z,8.83
2022-10-20T10:35:07.794Z,8.17
2022-10-20T10:37:42.849Z,9.23
2022-10-20T10:40:18.923Z,10.00
2022-10-20T10:42:57.654Z,9.00
2022-10-20T10:45:51.296Z,8.33
2022-10-20T10:48:26.006Z,8.50
2022-10-20T10:51:00.687Z,9.50
2022-10-20T10:53:54.075Z,8.00
2022-10-20T10:56:32.152Z,8.73
2022-10-20T10:59:17.307Z,8.57
2022-10-20T11:02:10.778Z,8.50
2022-10-20T11:04:45.440Z,10.37
2022-10-20T11:07:35.164Z,8.00
2022-10-20T11:10:30.605Z,8.10
2022-10-20T11:13:05.031Z,8.10
2022-10-20T11:15:36.642Z,8.03
2022-10-20T11:18:33.208Z,7.40
2022-10-20T11:21:28.263Z,10.20
2022-10-20T11:24:15.686Z,7.30
2022-10-20T11:26:53.375Z,6.63
2022-10-20T11:29:32.907Z,7.60
2022-10-20T11:32:29.185Z,8.40
2022-10-20T11:35:35.753Z,6.80
2022-10-20T11:38:32.172Z,9.27
2022-10-20T11:41:19.146Z,8.80
2022-10-20T11:43:59.866Z,7.10
2022-10-20T11:46:56.473Z,7.83
2022-10-20T11:49:28.949Z,9.30
2022-10-20T11:52:38.444Z,9.47
2022-10-20T11:55:22.207Z,7.07
2022-10-20T11:58:18.600Z,7.20
2022-10-20T12:01:11.821Z,7.70
2022-10-20T12:04:17.622Z,6.90
2022-10-20T12:06:58.251Z,8.07
2022-10-20T12:09:32.987Z,9.67
2022-10-20T12:12:12.691Z,7.90
2022-10-20T12:14:50.370Z,10.67
2022-10-20T12:17:35.729Z,7.30
2022-10-20T12:20:22.729Z,9.73
2022-10-20T12:22:58.959Z,6.77
2022-10-20T12:25:30.683Z,7.00
2022-10-20T12:28:20.612Z,8.00
2022-10-20T12:30:59.575Z,7.37
2022-10-20T12:33:39.273Z,7.00
2022-10-20T12:36:37.472Z,9.93
2022-10-20T12:39:12.220Z,7.47
2022-10-20T12:42:05.290Z,7.60
2022-10-20T12:44:44.072Z,7.33
2022-10-20T12:47:24.431Z,12.57
2022-10-20T12:50:00.422Z,7.80
2022-10-20T12:52:36.061Z,6.80
2022-10-20T12:55:18.289Z,6.83
2022-10-20T12:58:09.497Z,9.90
2022-10-20T13:00:47.231Z,8.63
2022-10-20T13:03:40.028Z,6.97
2022-10-20T13:06:23.983Z,7.17
2022-10-20T13:09:05.007Z,10.23
2022-10-20T13:11:40.708Z,8.60
2022-10-20T13:14:12.480Z,11.87
2022-10-20T13:16:58.230Z,13.37
2022-10-20T13:19:47.786Z,8.93
2022-10-20T13:22:40.770Z,11.70
2022-10-20T13:25:35.458Z,19.07
2022-10-20T13:28:18.443Z,7.70
2022-10-20T13:30:56.163Z,8.07
2022-10-20T13:33:51.545Z,7.53
2022-10-20T13:36:49.979Z,10.73
2022-10-20T13:39:48.262Z,7.20
2022-10-20T13:42:43.635Z,8.60
2022-10-20T13:45:38.740Z,8.43
2022-10-20T13:48:31.155Z,9.57
2022-10-20T13:51:17.123Z,10.93
2022-10-20T13:53:55.658Z,9.43
2022-10-20T13:56:37.727Z,9.83
2022-10-20T13:59:17.574Z,10.93
2022-10-20T14:01:55.243Z,10.60
2022-10-20T14:04:30.034Z,10.30
2022-10-20T14:07:08.515Z,10.67
2022-10-20T14:09:45.320Z,9.07
2022-10-20T14:12:24.021Z,9.07
2022-10-20T14:15:01.402Z,9.60
2022-10-20T14:17:36.263Z,9.33
2022-10-20T14:20:21.850Z,8.90
2022-10-20T14:22:54.660Z,9.83
2022-10-20T14:25:27.907Z,9.43
2022-10-20T14:28:02.830Z,15.23
2022-10-20T14:30:40.175Z,12.43
2022-10-20T14:33:18.135Z,9.00
2022-10-20T14:35:55.746Z,11.00
2022-10-20T14:38:35.405Z,10.00
2022-10-20T14:41:08.452Z,11.93
2022-10-20T14:43:45.736Z,10.73
2022-10-20T14:46:33.535Z,8.60
2022-10-20T14:49:15.620Z,13.03
2022-10-20T14:52:21.810Z,9.33
2022-10-20T14:54:53.922Z,7.70
2022-10-20T14:57:25.738Z,11.13
2022-10-20T15:00:03.805Z,8.50
2022-10-20T15:02:42.682Z,9.93
2022-10-20T15:05:26.627Z,8.80
2022-10-20T15:08:07.193Z,8.33
2022-10-20T15:10:39.315Z,9.73
2022-10-20T15:13:25.005Z,15.57
2022-10-20T15:16:01.895Z,7.10
2022-10-20T15:18:37.866Z,9.23
2022-10-20T15:21:11.902Z,10.63
2022-10-20T15:23:43.627Z,7.60
2022-10-20T15:26:15.337Z,8.27
2022-10-20T15:28:49.268Z,12.43
2022-10-20T15:31:27.093Z,8.77
2022-10-20T15:33:58.890Z,7.93
2022-10-20T15:36:33.668Z,9.30
2022-10-20T15:39:05.964Z,9.30
2022-10-20T15:41:39.252Z,12.87
2022-10-20T15:44:17.727Z,8.43
2022-10-20T15:46:54.990Z,7.13
2022-10-20T15:49:26.691Z,10.57
2022-10-20T15:51:58.599Z,7.73
2022-10-20T15:54:30.336Z,11.73
2022-10-20T15:57:02.077Z,7.63
2022-10-20T15:59:33.811Z,8.90
2022-10-20T16:02:11.216Z,9.83
2022-10-20T16:04:42.979Z,14.70
2022-10-20T16:07:14.674Z,15.53
2022-10-20T16:09:46.378Z,8.70
2022-10-20T16:12:18.291Z,15.17
2022-10-20T16:14:49.999Z,8.23
2022-10-20T16:17:21.808Z,7.63
2022-10-20T16:19:53.474Z,11.47
2022-10-20T16:22:26.450Z,13.40
2022-10-20T16:25:01.338Z,12.17
2022-10-20T16:27:34.044Z,11.30
2022-10-20T16:30:07.838Z,9.73
2022-10-20T16:32:39.929Z,11.53
2022-10-20T16:35:11.971Z,9.17
2022-10-20T16:37:44.055Z,7.93
2022-10-20T16:40:15.860Z,14.40
2022-10-20T16:42:48.587Z,25.13
2022-10-20T16:45:20.322Z,19.90
2022-10-20T16:47:52.113Z,18.23
2022-10-20T16:50:24.142Z,9.30
2022-10-20T16:52:55.928Z,10.97
2022-10-20T16:55:27.565Z,11.67
2022-10-20T16:57:59.376Z,13.33
2022-10-20T17:00:31.080Z,30.43
2022-10-20T17:03:02.904Z,11.00
2022-10-20T17:05:34.699Z,13.53
2022-10-20T17:08:06.383Z,10.53
2022-10-20T17:10:38.336Z,13.23
2022-10-20T17:13:10.259Z,13.13
2022-10-20T17:15:41.955Z,15.98
2022-10-20T17:18:13.772Z,13.33
2022-10-20T17:20:45.516Z,11.67
2022-10-20T17:23:17.216Z,19.47
2022-10-20T17:25:50.027Z,14.87
2022-10-20T17:28:21.809Z,14.13
2022-10-20T17:30:57.270Z,17.10
2022-10-20T17:33:30.480Z,17.17
2022-10-20T17:36:02.260Z,12.60
2022-10-20T17:38:34.443Z,17.00
2022-10-20T17:41:11.999Z,14.70
2022-10-20T17:43:43.754Z,16.40
2022-10-20T17:46:17.766Z,12.00
2022-10-20T17:48:49.519Z,13.10
2022-10-20T17:51:23.559Z,12.10
2022-10-20T17:53:57.621Z,14.83
2022-10-20T17:56:32.155Z,11.03
2022-10-20T17:59:06.391Z,10.70
2022-10-20T18:01:40.654Z,12.47
2022-10-20T18:04:16.863Z,12.70
2022-10-20T18:06:48.603Z,10.33
2022-10-20T18:09:20.576Z,11.63
2022-10-20T18:11:53.243Z,10.95
2022-10-20T18:14:25.061Z,11.17
2022-10-20T18:16:56.830Z,12.10
2022-10-20T18:19:28.531Z,19.30
2022-10-20T18:22:00.191Z,10.77
2022-10-20T18:24:32.022Z,12.17
2022-10-20T18:27:05.635Z,11.13
2022-10-20T18:29:37.833Z,15.90
2022-10-20T18:32:09.566Z,14.80
2022-10-20T18:34:43.376Z,10.57
2022-10-20T18:37:17.830Z,19.07
2022-10-20T18:39:49.824Z,16.70
2022-10-20T18:42:21.519Z,14.52
2022-10-20T18:44:53.348Z,11.83
2022-10-20T18:47:25.031Z,12.00
2022-10-20T18:49:56.798Z,15.00
2022-10-20T18:52:28.533Z,13.10
2022-10-20T18:55:00.249Z,11.43
2022-10-20T18:57:34.749Z,12.37
2022-10-20T19:00:08.267Z,18.90
2022-10-20T19:02:40.112Z,11.27
2022-10-20T19:05:11.832Z,12.53
2022-10-20T19:07:43.670Z,14.77
2022-10-20T19:10:15.399Z,11.07
2022-10-20T19:12:47.046Z,12.80
2022-10-20T19:15:18.765Z,23.87
2022-10-20T19:17:50.515Z,13.90
2022-10-20T19:20:22.188Z,14.00
2022-10-20T19:22:53.840Z,15.70
2022-10-20T19:25:25.498Z,14.90
2022-10-20T19:27:58.898Z,15.40
2022-10-20T19:30:34.973Z,9.80
2022-10-20T19:33:06.805Z,11.53
2022-10-20T19:35:38.767Z,12.60
2022-10-20T19:38:10.433Z,18.63
2022-10-20T19:40:42.259Z,21.33
2022-10-20T19:43:13.951Z,24.77
2022-10-20T19:45:49.069Z,20.80
2022-10-20T19:48:21.987Z,18.10
2022-10-20T19:50:53.826Z,22.77
2022-10-20T19:53:25.533Z,22.10
2022-10-20T19:55:57.279Z,18.67
2022-10-20T19:58:29.051Z,14.77
2022-10-20T20:01:00.957Z,13.70
2022-10-20T20:03:33.080Z,15.80
2022-10-20T20:06:17.580Z,13.30
2022-10-20T20:08:54.696Z,12.87
2022-10-20T20:11:30.694Z,14.10
2022-10-20T20:14:15.576Z,14.73
2022-10-20T20:16:47.917Z,17.30
2022-10-20T20:19:19.631Z,15.27
2022-10-20T20:21:51.371Z,11.33
2022-10-20T20:24:23.037Z,14.60
2022-10-20T20:26:54.727Z,17.60
2022-10-20T20:29:26.450Z,15.60
2022-10-20T20:31:58.164Z,14.13
2022-10-20T20:34:29.907Z,17.07
2022-10-20T20:37:01.687Z,15.53
2022-10-20T20:39:33.383Z,14.80
2022-10-20T20:42:05.169Z,15.87
2022-10-20T20:44:36.863Z,15.73
2022-10-20T20:47:08.651Z,15.50
2022-10-20T20:49:40.412Z,15.50
2022-10-20T20:52:12.143Z,15.50
2022-10-20T20:54:43.911Z,14.67
2022-10-20T20:57:15.583Z,16.10
2022-10-20T20:59:47.990Z,18.10
2022-10-20T21:02:19.728Z,15.90
2022-10-20T21:04:51.574Z,17.13
2022-10-20T21:07:23.395Z,18.73
2022-10-20T21:09:55.163Z,18.63
2022-10-20T21:12:28.708Z,14.73
2022-10-20T21:15:02.314Z,18.10
2022-10-20T21:17:34.031Z,17.90
2022-10-20T21:20:06.475Z,15.97
2022-10-20T21:22:38.423Z,15.33
2022-10-20T21:25:10.424Z,19.47
2022-10-20T21:27:42.212Z,21.10
2022-10-20T21:30:14.026Z,19.63
2022-10-20T21:32:45.711Z,13.53
2022-10-20T21:35:17.465Z,16.50
2022-10-20T21:37:49.302Z,15.63
2022-10-20T21:40:20.958Z,22.97
2022-10-20T21:42:52.628Z,18.27
2022-10-20T21:45:24.308Z,16.47
2022-10-20T21:47:56.478Z,17.17
2022-10-20T21:50:28.283Z,16.00
2022-10-20T21:52:59.963Z,19.10
2022-10-20T21:55:34.319Z,23.00
2022-10-20T21:58:06.081Z,21.13
2022-10-20T22:00:37.826Z,17.00
2022-10-20T22:03:09.528Z,20.27
2022-10-20T22:05:41.230Z,18.37
2022-10-20T22:08:13.055Z,20.20
2022-10-20T22:10:44.728Z,21.10
2022-10-20T22:13:16.366Z,18.13
2022-10-20T22:15:48.113Z,20.70
2022-10-20T22:18:19.846Z,21.53
2022-10-20T22:20:51.805Z,23.73
2022-10-20T22:23:24.077Z,17.90
2022-10-20T22:25:59.388Z,22.80
2022-10-20T22:28:33.604Z,16.43
2022-10-20T22:31:42.268Z,29.50
2022-10-20T22:34:20.370Z,18.43
2022-10-20T22:36:53.540Z,23.30
2022-10-20T22:39:36.593Z,21.37
2022-10-20T22:42:08.860Z,18.47
2022-10-20T22:44:42.628Z,20.13
2022-10-20T22:47:15.250Z,14.80
2022-10-20T22:49:53.624Z,22.73
2022-10-20T22:52:37.899Z,18.77
2022-10-20T22:55:10.135Z,17.67
2022-10-20T22:57:42.282Z,17.93
2022-10-20T23:00:18.668Z,17.47
2022-10-20T23:02:50.713Z,21.60
2022-10-20T23:05:23.267Z,18.37
2022-10-20T23:07:55.338Z,30.63
2022-10-20T23:10:27.814Z,21.10
2022-10-20T23:13:02.234Z,23.20
2022-10-20T23:15:37.506Z,18.97
2022-10-20T23:18:09.219Z,21.10
2022-10-20T23:20:40.902Z,28.48
2022-10-20T23:23:12.724Z,24.90
2022-10-20T23:25:44.519Z,21.37
2022-10-20T23:28:17.187Z,23.43
2022-10-20T23:30:49.035Z,29.27
2022-10-20T23:33:20.739Z,19.77
2022-10-20T23:35:52.469Z,24.23
2022-10-20T23:38:24.282Z,22.83
2022-10-20T23:40:56.151Z,25.57
2022-10-20T23:43:28.052Z,23.67
2022-10-20T23:46:00.038Z,22.50
2022-10-20T23:48:31.845Z,26.70
2022-10-20T23:51:04.907Z,19.57
2022-10-20T23:53:37.173Z,18.77
2022-10-20T23:56:08.880Z,33.00
2022-10-20T23:58:40.710Z,21.10
